createdAt,value
2023-05-18T00:04:44.575Z,8.07
2023-05-18T00:09:46.854Z,8.68
2023-05-18T00:14:47.330Z,8.50
2023-05-18T00:19:50.452Z,8.63
2023-05-18T00:24:52.126Z,8.17
2023-05-18T00:29:55.287Z,8.43
2023-05-18T00:34:53.471Z,8.25
2023-05-18T00:39:57.473Z,8.32
2023-05-18T00:45:00.452Z,8.48
2023-05-18T00:50:05.623Z,8.25
2023-05-18T00:55:06.789Z,7.60
2023-05-18T01:00:09.678Z,8.05
2023-05-18T01:05:12.976Z,9.43
2023-05-18T01:10:17.055Z,9.40
2023-05-18T01:15:18.953Z,8.15
2023-05-18T01:20:22.427Z,7.97
2023-05-18T01:25:23.967Z,8.57
2023-05-18T01:30:26.430Z,7.97
2023-05-18T01:35:25.722Z,9.13
2023-05-18T01:40:29.274Z,8.70
2023-05-18T01:50:31.741Z,8.57
2023-05-18T01:55:31.285Z,8.45
2023-05-18T02:00:31.402Z,8.10
2023-05-18T02:05:32.905Z,9.02
2023-05-18T02:10:58.496Z,7.70
2023-05-18T02:15:57.050Z,7.28
2023-05-18T02:21:04.523Z,7.07
2023-05-18T02:26:04.074Z,7.25
2023-05-18T02:31:13.173Z,7.15
2023-05-18T02:36:13.175Z,7.43
2023-05-18T02:41:15.252Z,7.72
2023-05-18T02:46:13.803Z,7.63
2023-05-18T02:51:17.561Z,7.45
2023-05-18T02:56:18.066Z,6.40
2023-05-18T03:01:41.627Z,6.20
2023-05-18T03:06:46.875Z,5.03
2023-05-18T03:11:47.473Z,4.72
2023-05-18T03:16:46.632Z,4.80
2023-05-18T03:22:07.452Z,4.88
2023-05-18T03:27:09.763Z,5.15
2023-05-18T03:32:11.242Z,4.70
2023-05-18T03:37:15.915Z,4.88
2023-05-18T03:42:13.881Z,4.65
2023-05-18T03:47:15.066Z,4.95
2023-05-18T03:52:16.010Z,4.38
2023-05-18T03:57:17.113Z,5.07
2023-05-18T04:02:18.537Z,4.63
2023-05-18T04:07:18.486Z,4.83
2023-05-18T04:12:18.419Z,5.55
2023-05-18T04:17:22.589Z,5.70
2023-05-18T04:22:24.307Z,6.43
2023-05-18T04:32:27.154Z,6.20
2023-05-18T04:37:28.702Z,7.43
2023-05-18T04:42:27.827Z,7.50
2023-05-18T04:47:26.973Z,8.75
2023-05-18T04:52:25.118Z,6.97
2023-05-18T04:57:27.521Z,6.78
2023-05-18T05:02:38.251Z,7.10
2023-05-18T05:07:48.311Z,6.82
2023-05-18T05:12:53.677Z,6.60
2023-05-18T05:17:53.254Z,7.25
2023-05-18T05:22:54.644Z,6.18
2023-05-18T05:28:03.954Z,7.28
2023-05-18T05:33:04.199Z,6.90
2023-05-18T05:38:23.444Z,7.40
2023-05-18T05:43:24.529Z,7.50
2023-05-18T05:48:28.375Z,9.50
2023-05-18T05:53:39.872Z,7.90
2023-05-18T05:58:42.530Z,8.32
2023-05-18T06:10:55.464Z,7.20
2023-05-18T06:21:57.417Z,8.00
2023-05-18T06:27:00.201Z,8.82
2023-05-18T06:32:22.413Z,8.25
2023-05-18T06:37:33.735Z,8.80
2023-05-18T06:43:15.503Z,8.70
2023-05-18T06:54:18.003Z,9.07
2023-05-18T06:59:16.725Z,7.53
2023-05-18T07:04:33.912Z,7.60
2023-05-18T07:09:37.210Z,8.15
2023-05-18T07:15:39.418Z,7.85
2023-05-18T07:26:36.375Z,8.23
2023-05-18T07:37:17.288Z,6.95
2023-05-18T07:42:28.057Z,5.70
2023-05-18T07:52:47.244Z,4.65
2023-05-18T08:04:00.806Z,5.32
2023-05-18T08:09:46.967Z,6.00
2023-05-18T08:21:10.462Z,5.78
2023-05-18T08:31:56.697Z,5.47
2023-05-18T08:36:55.474Z,6.75
2023-05-18T08:41:58.838Z,6.43
2023-05-18T08:47:26.772Z,7.22
2023-05-18T08:52:28.537Z,8.25
2023-05-18T08:57:31.094Z,6.50
2023-05-18T09:15:08.896Z,4.32
2023-05-18T09:20:18.139Z,5.53
2023-05-18T09:25:21.466Z,4.18
2023-05-18T09:30:42.009Z,5.15
2023-05-18T09:35:56.081Z,3.95
2023-05-18T09:40:57.862Z,3.45
2023-05-18T09:45:58.092Z,3.42
2023-05-18T09:51:38.115Z,3.83
2023-05-18T09:56:39.782Z,3.67
2023-05-18T10:02:02.165Z,3.55
2023-05-18T10:07:03.890Z,3.95
2023-05-18T10:12:27.293Z,3.20
2023-05-18T10:17:28.429Z,2.97
2023-05-18T10:22:30.217Z,2.70
2023-05-18T10:27:29.246Z,2.55
2023-05-18T10:32:31.239Z,2.50
2023-05-18T10:37:34.207Z,2.10
2023-05-18T10:42:35.328Z,2.05
2023-05-18T10:47:36.402Z,2.25
2023-05-18T10:52:35.013Z,1.70
2023-05-18T11:03:09.276Z,2.30
2023-05-18T11:08:35.576Z,1.75
2023-05-18T11:13:41.834Z,1.80
2023-05-18T11:19:27.608Z,1.70
2023-05-18T11:24:32.517Z,2.40
2023-05-18T11:30:15.168Z,1.30
2023-05-18T11:41:44.492Z,1.45
2023-05-18T11:47:09.870Z,1.70
2023-05-18T11:58:10.831Z,1.42
2023-05-18T12:03:14.782Z,1.65
2023-05-18T12:08:30.810Z,1.58
2023-05-18T12:19:53.918Z,1.67
2023-05-18T12:24:56.037Z,1.90
2023-05-18T12:30:32.074Z,1.88
2023-05-18T12:35:43.941Z,2.17
2023-05-18T12:41:05.196Z,1.75
2023-05-18T12:46:28.580Z,3.50
2023-05-18T12:51:51.902Z,2.63
2023-05-18T12:57:16.469Z,2.65
2023-05-18T13:08:02.689Z,2.13
2023-05-18T13:13:17.206Z,2.13
2023-05-18T13:18:17.697Z,1.80
2023-05-18T13:23:16.730Z,2.53
2023-05-18T13:28:15.424Z,2.20
2023-05-18T13:33:18.151Z,2.70
2023-05-18T13:38:25.324Z,2.58
2023-05-18T13:43:25.746Z,2.47
2023-05-18T13:48:30.029Z,2.58
2023-05-18T13:53:28.991Z,3.95
2023-05-18T13:58:29.841Z,2.28
2023-05-18T14:03:30.899Z,2.22
2023-05-18T14:08:34.835Z,2.25
2023-05-18T14:14:00.158Z,2.00
2023-05-18T14:19:10.594Z,2.25
2023-05-18T14:24:20.095Z,1.85
2023-05-18T14:29:21.906Z,2.08
2023-05-18T14:34:28.723Z,2.40
2023-05-18T14:39:40.631Z,1.60
2023-05-18T14:44:42.624Z,2.45
2023-05-18T14:49:48.097Z,1.98
2023-05-18T14:54:49.664Z,2.30
2023-05-18T14:59:51.986Z,1.90
2023-05-18T15:05:25.552Z,2.43
2023-05-18T15:10:58.758Z,2.42
2023-05-18T15:16:08.869Z,2.15
2023-05-18T15:21:08.553Z,2.53
2023-05-18T15:26:09.207Z,3.05
2023-05-18T15:31:11.069Z,1.85
2023-05-18T15:41:36.127Z,1.90
2023-05-18T15:46:37.151Z,1.65
2023-05-18T15:51:51.506Z,2.20
2023-05-18T15:57:15.657Z,1.58
2023-05-18T16:02:17.171Z,1.80
2023-05-18T16:07:46.817Z,2.22
2023-05-18T16:13:30.545Z,1.67
2023-05-18T16:18:43.245Z,1.90
2023-05-18T16:29:39.867Z,1.40
2023-05-18T16:58:34.089Z,1.60
2023-05-18T17:14:57.154Z,2.53
2023-05-18T17:19:55.560Z,1.63
2023-05-18T17:30:10.261Z,1.60
2023-05-18T17:35:13.284Z,1.80
2023-05-18T17:40:16.221Z,1.65
2023-05-18T17:45:14.813Z,2.10
2023-05-18T17:50:14.277Z,1.83
2023-05-18T17:55:14.546Z,2.10
2023-05-18T18:00:14.325Z,2.40
2023-05-18T18:11:36.849Z,2.13
2023-05-18T18:17:03.579Z,2.40
2023-05-18T18:22:04.300Z,2.00
2023-05-18T18:33:00.869Z,2.72
2023-05-18T18:38:22.837Z,2.78
2023-05-18T18:43:53.352Z,3.28
2023-05-18T18:48:43.445Z,3.20
2023-05-18T18:53:45.485Z,3.42
2023-05-18T19:11:13.197Z,3.25
2023-05-18T19:16:10.537Z,3.47
2023-05-18T19:21:08.703Z,4.22
2023-05-18T19:26:18.130Z,3.72
2023-05-18T19:31:21.954Z,4.03
2023-05-18T19:36:53.498Z,3.87
2023-05-18T19:41:51.144Z,3.83
2023-05-18T19:59:24.099Z,4.35
2023-05-18T20:15:36.135Z,4.28
2023-05-18T20:20:37.834Z,4.38
2023-05-18T20:26:04.545Z,5.22
2023-05-18T20:31:04.403Z,4.20
2023-05-18T20:36:13.452Z,4.63
2023-05-18T20:41:12.620Z,4.82
2023-05-18T20:46:09.932Z,4.38
2023-05-18T20:51:22.545Z,5.47
2023-05-18T20:56:25.352Z,5.53
2023-05-18T21:01:30.900Z,4.80
2023-05-18T21:06:34.578Z,5.15
2023-05-18T21:11:33.645Z,5.85
2023-05-18T21:16:36.142Z,5.45
2023-05-18T21:21:59.862Z,5.88
2023-05-18T21:26:58.752Z,5.28
2023-05-18T21:32:01.483Z,5.97
2023-05-18T21:37:06.104Z,5.27
2023-05-18T21:42:05.125Z,5.97
2023-05-18T21:47:08.328Z,6.38
2023-05-18T21:52:09.786Z,6.63
2023-05-18T21:57:08.047Z,5.97
2023-05-18T22:02:13.403Z,6.88
2023-05-18T22:07:14.825Z,6.95
2023-05-18T22:12:12.010Z,7.15
2023-05-18T22:17:11.537Z,7.35
2023-05-18T22:22:29.224Z,6.25
2023-05-18T22:27:31.264Z,6.95
2023-05-18T22:32:32.659Z,8.27
2023-05-18T22:37:31.086Z,7.53
2023-05-18T22:42:31.032Z,7.60
2023-05-18T22:47:32.921Z,7.38
2023-05-18T22:52:35.094Z,7.43
2023-05-18T22:57:33.454Z,8.05
2023-05-18T23:02:32.731Z,7.55
2023-05-18T23:07:37.944Z,7.78
2023-05-18T23:12:38.850Z,7.72
2023-05-18T23:17:39.113Z,8.35
2023-05-18T23:22:39.174Z,8.33
2023-05-18T23:27:39.045Z,8.48
2023-05-18T23:32:36.867Z,8.27
2023-05-18T23:37:35.231Z,8.73
2023-05-18T23:42:33.901Z,8.10
2023-05-18T23:47:35.742Z,9.45
2023-05-18T23:52:34.868Z,9.18
2023-05-18T23:57:34.504Z,8.68
